Time;durP1;ratioP1;P1;durP2;ratioP2;P2;SDS_P1;SDS_P2;PMS_P1;PMS_P2;Temp;Humidity;BMP_temperature;BMP_pressure;BME280_temperature;BME280_humidity;BME280_pressure;Samples;Min_cycle;Max_cycle;Signal;HPM_P1;HPM_P2
2022/06/23 00:02:33;;;;;;;5.07;2.37;;;22.30;99.90;;;;;;5020567;28;20211;-87
2022/06/23 00:05:03;;;;;;;5.70;2.20;;;22.30;99.90;;;;;;5005730;28;20178;-82
2022/06/23 00:07:32;;;;;;;3.93;2.00;;;22.30;1.00;;;;;;5037663;28;20201;-86
2022/06/23 00:10:00;;;;;;;4.53;2.20;;;22.30;99.90;;;;;;5019467;28;20216;-82
2022/06/23 00:12:32;;;;;;;5.47;1.90;;;22.30;99.00;;;;;;5018792;28;20231;-81
2022/06/23 00:15:06;;;;;;;6.23;2.33;;;22.20;99.90;;;;;;5023843;28;20162;-86
2022/06/23 00:17:44;;;;;;;3.27;2.17;;;22.10;73.50;;;;;;5041085;28;20161;-83
2022/06/23 00:20:18;;;;;;;4.73;2.20;;;22.10;99.90;;;;;;5040830;28;20220;-84
2022/06/23 00:22:49;;;;;;;6.00;2.33;;;22.10;99.90;;;;;;5032686;28;20217;-84
2022/06/23 00:25:47;;;;;;;8.03;2.37;;;22.00;99.90;;;;;;5045864;28;20165;-86
2022/06/23 00:28:31;;;;;;;5.97;2.47;;;22.00;99.90;;;;;;5045763;28;20206;-86
2022/06/23 00:31:05;;;;;;;4.23;2.27;;;22.00;1.00;;;;;;5019285;28;20592;-83
2022/06/23 00:37:00;;;;;;;5.93;2.23;;;22.00;99.90;;;;;;5036663;28;20176;-86
2022/06/23 00:39:30;;;;;;;5.27;2.50;;;22.00;99.90;;;;;;5032860;28;20202;-83
2022/06/23 00:41:58;;;;;;;5.07;2.60;;;21.90;99.90;;;;;;5033114;28;20282;-82
2022/06/23 00:44:36;;;;;;;4.63;2.43;;;21.90;99.90;;;;;;5036355;28;20183;-81
2022/06/23 00:47:06;;;;;;;7.27;2.60;;;22.00;1.00;;;;;;5052248;28;20163;-84
2022/06/23 00:49:48;;;;;;;4.10;2.40;;;22.00;1.00;;;;;;5030762;28;20185;-84
2022/06/23 00:53:06;;;;;;;5.10;2.40;;;22.00;46.00;;;;;;5039768;28;20193;-82
2022/06/23 00:55:35;;;;;;;5.07;2.33;;;21.90;1.00;;;;;;4996637;28;20244;-87
2022/06/23 00:58:28;;;;;;;3.13;2.27;;;22.00;1.00;;;;;;5038324;28;20282;-83
2022/06/23 01:01:13;;;;;;;6.53;2.60;;;22.10;1.00;;;;;;5027296;28;20255;-80
2022/06/23 01:04:01;;;;;;;2.60;2.10;;;22.10;99.90;;;;;;5032120;28;20178;-82
2022/06/23 01:06:39;;;;;;;3.10;1.90;;;22.10;99.90;;;;;;5022838;28;20243;-87
2022/06/23 01:09:25;;;;;;;4.67;2.00;;;22.00;1.00;;;;;;5022782;28;20222;-84
2022/06/23 01:12:00;;;;;;;5.00;2.20;;;22.00;1.00;;;;;;5022937;28;20175;-81
2022/06/23 01:15:05;;;;;;;5.50;2.70;;;21.90;99.90;;;;;;5023212;28;20170;-86
2022/06/23 01:17:41;;;;;;;3.90;2.40;;;21.80;1.00;;;;;;5037581;28;20167;-84
2022/06/23 01:20:23;;;;;;;4.20;2.70;;;21.70;99.90;;;;;;5020853;28;20184;-85
2022/06/23 01:23:08;;;;;;;3.47;1.87;;;21.60;1.00;;;;;;5019598;28;20649;-87
2022/06/23 01:26:12;;;;;;;3.70;2.30;;;21.60;1.00;;;;;;5020996;28;20177;-86
2022/06/23 01:28:44;;;;;;;4.33;2.40;;;21.60;1.00;;;;;;5037013;28;20173;-85
2022/06/23 01:31:16;;;;;;;5.33;2.63;;;21.60;99.90;;;;;;5019613;28;20202;-85
2022/06/23 01:33:57;;;;;;;4.27;2.40;;;21.50;1.00;;;;;;5021152;28;20173;-86
2022/06/23 01:36:39;;;;;;;4.40;1.93;;;21.40;43.20;;;;;;5023206;28;20275;-87
2022/06/23 01:39:17;;;;;;;5.20;2.27;;;21.50;99.90;;;;;;5040634;28;20173;-86
2022/06/23 01:41:42;;;;;;;2.97;2.23;;;21.60;99.90;;;;;;5033668;28;20252;-82
2022/06/23 01:44:11;;;;;;;6.83;2.53;;;21.60;1.00;;;;;;5035792;28;20178;-85
2022/06/23 01:46:43;;;;;;;5.00;2.30;;;21.70;99.90;;;;;;5034654;28;20167;-86
2022/06/23 01:49:38;;;;;;;6.93;2.60;;;21.80;62.10;;;;;;5039146;28;20170;-87
2022/06/23 01:52:16;;;;;;;5.73;2.30;;;21.80;1.00;;;;;;5019431;28;20718;-84
2022/06/23 01:54:44;;;;;;;3.23;2.40;;;21.80;1.00;;;;;;5020287;28;20261;-86
2022/06/23 01:57:48;;;;;;;5.57;2.67;;;21.80;1.00;;;;;;5019195;28;20175;-81
2022/06/23 02:00:21;;;;;;;5.50;2.00;;;21.90;1.00;;;;;;5039973;28;20175;-86
2022/06/23 02:02:58;;;;;;;4.57;2.00;;;21.90;99.90;;;;;;5019332;28;20285;-84
2022/06/23 02:05:47;;;;;;;3.47;2.10;;;21.90;1.00;;;;;;5021145;28;20194;-86
2022/06/23 02:08:55;;;;;;;4.20;2.20;;;22.00;1.00;;;;;;5019584;28;20638;-86
2022/06/23 02:11:41;;;;;;;4.33;2.00;;;21.90;99.90;;;;;;5036479;28;20640;-84
2022/06/23 02:14:11;;;;;;;4.20;2.10;;;21.80;1.00;;;;;;5036616;28;20190;-83
2022/06/23 02:16:44;;;;;;;3.03;2.27;;;21.80;1.00;;;;;;5018935;28;20173;-87
2022/06/23 02:19:34;;;;;;;5.33;2.30;;;21.80;1.00;;;;;;5018429;28;20360;-85
2022/06/23 02:22:03;;;;;;;5.77;2.10;;;21.70;1.00;;;;;;5018722;28;20210;-84
2022/06/23 02:24:46;;;;;;;4.93;2.30;;;21.60;99.90;;;;;;5020693;28;20177;-85
2022/06/23 02:27:20;;;;;;;5.83;2.30;;;21.60;99.90;;;;;;5020384;28;20538;-87
2022/06/23 02:30:10;;;;;;;5.10;2.40;;;21.50;99.90;;;;;;5021215;28;20176;-85
2022/06/23 02:33:31;;;;;;;3.77;2.27;;;21.50;1.00;;;;;;5019791;28;20185;-85
2022/06/23 02:36:19;;;;;;;5.30;2.50;;;21.50;99.90;;;;;;4976129;28;20193;-88
2022/06/23 02:38:57;;;;;;;5.73;2.47;;;21.40;1.00;;;;;;5019725;28;20178;-88
2022/06/23 02:41:32;;;;;;;5.53;2.30;;;21.50;1.00;;;;;;5021539;28;20267;-86
2022/06/23 02:44:46;;;;;;;4.63;2.40;;;21.50;1.00;;;;;;5022234;28;20201;-87
2022/06/23 02:47:47;;;;;;;4.50;2.63;;;21.70;1.00;;;;;;5035557;28;20166;-84
2022/06/23 02:50:58;;;;;;;6.23;2.50;;;21.70;99.90;;;;;;5057696;28;20185;-83
2022/06/23 02:53:58;;;;;;;4.93;2.30;;;21.80;99.90;;;;;;4999147;28;20202;-81
2022/06/23 03:00:02;;;;;;;4.43;2.63;;;21.60;1.00;;;;;;5049364;28;20173;-85
2022/06/23 03:02:39;;;;;;;3.80;2.50;;;21.50;16.40;;;;;;5036973;28;20201;-86
2022/06/23 03:08:30;;;;;;;5.40;2.40;;;21.60;1.00;;;;;;5036606;28;20191;-86
2022/06/23 03:11:17;;;;;;;5.03;2.37;;;21.50;65.20;;;;;;5017281;28;20182;-87
2022/06/23 03:13:54;;;;;;;5.20;2.77;;;21.60;1.00;;;;;;5034810;28;20154;-86
2022/06/23 03:16:35;;;;;;;4.60;2.60;;;21.80;99.90;;;;;;5017733;28;20208;-83
2022/06/23 03:19:10;;;;;;;4.87;2.50;;;21.80;1.00;;;;;;5034765;28;20197;-86
2022/06/23 03:22:04;;;;;;;5.10;2.37;;;21.70;99.90;;;;;;5017905;28;20206;-85
2022/06/23 03:24:30;;;;;;;4.10;2.67;;;21.70;99.90;;;;;;5020746;28;20198;-84
2022/06/23 03:27:07;;;;;;;6.03;2.50;;;21.70;1.00;;;;;;5018439;28;20174;-84
2022/06/23 03:29:41;;;;;;;6.27;2.53;;;21.50;99.90;;;;;;5035103;28;20229;-86
2022/06/23 03:32:12;;;;;;;5.80;2.63;;;21.50;99.90;;;;;;5018142;28;20185;-87
2022/06/23 03:34:54;;;;;;;5.63;2.30;;;21.50;58.30;;;;;;5017725;28;20683;-87
2022/06/23 03:37:45;;;;;;;5.67;2.70;;;21.40;1.00;;;;;;5018065;28;20193;-84
2022/06/23 03:44:05;;;;;;;4.13;2.40;;;21.30;1.00;;;;;;5035378;28;20206;-85
2022/06/23 03:46:49;;;;;;;6.90;2.97;;;21.40;1.00;;;;;;4948307;28;20607;-86
2022/06/23 03:49:39;;;;;;;5.47;3.10;;;21.40;1.00;;;;;;5035013;28;20169;-85
2022/06/23 03:52:22;;;;;;;7.03;3.07;;;21.30;99.90;;;;;;5016793;28;20237;-86
2022/06/23 03:55:16;;;;;;;5.10;3.00;;;21.30;99.90;;;;;;5018175;28;20204;-86
2022/06/23 03:57:53;;;;;;;7.90;2.80;;;21.30;1.00;;;;;;5038052;28;20167;-83
2022/06/23 04:00:28;;;;;;;6.07;2.87;;;21.40;1.00;;;;;;5018913;28;20191;-87
2022/06/23 04:03:24;;;;;;;6.33;2.83;;;21.40;99.90;;;;;;5017747;28;20213;-86
2022/06/23 04:05:56;;;;;;;6.73;2.90;;;21.70;1.00;;;;;;5033801;28;20284;-82
2022/06/23 04:08:25;;;;;;;9.60;2.87;;;21.70;99.90;;;;;;5051313;28;20241;-82
2022/06/23 04:10:54;;;;;;;5.50;3.17;;;21.80;1.00;;;;;;5050505;28;20167;-83
2022/06/23 04:13:35;;;;;;;8.37;2.90;;;21.80;1.00;;;;;;5020229;28;20664;-84
2022/06/23 04:16:08;;;;;;;5.83;3.07;;;22.00;1.00;;;;;;5033869;28;20166;-83
2022/06/23 04:18:42;;;;;;;6.37;3.23;;;22.20;99.90;;;;;;5033994;28;20216;-86
2022/06/23 04:21:12;;;;;;;8.80;3.40;;;22.30;1.00;;;;;;5033840;28;20192;-84
2022/06/23 04:23:49;;;;;;;5.97;3.20;;;22.40;1.00;;;;;;5016335;28;20172;-86
2022/06/23 04:26:28;;;;;;;10.50;3.20;;;22.60;76.70;;;;;;5036462;28;20174;-85
2022/06/23 04:28:57;;;;;;;7.27;3.80;;;22.70;81.50;;;;;;5020697;28;20706;-83
2022/06/23 04:31:42;;;;;;;6.93;3.60;;;22.90;54.40;;;;;;5030696;28;20188;-83
2022/06/23 04:34:43;;;;;;;6.63;3.57;;;23.00;49.20;;;;;;5044660;28;20167;-82
2022/06/23 04:37:28;;;;;;;7.97;4.07;;;23.10;99.90;;;;;;5031294;28;20232;-85
2022/06/23 04:40:14;;;;;;;8.27;3.90;;;23.20;99.90;;;;;;5044320;28;20180;-83
2022/06/23 04:42:49;;;;;;;8.43;4.73;;;23.00;99.90;;;;;;5043103;28;20232;-83
2022/06/23 04:45:43;;;;;;;9.40;4.27;;;22.80;99.90;;;;;;5042631;28;20169;-84
2022/06/23 04:48:39;;;;;;;10.40;4.73;;;22.90;99.90;;;;;;5061482;28;20167;-84
2022/06/23 04:54:41;;;;;;;6.23;4.10;;;23.00;1.00;;;;;;5053523;28;20707;-86
2022/06/23 04:57:41;;;;;;;9.03;4.40;;;23.00;1.00;;;;;;5048157;28;20667;-88
2022/06/23 05:00:59;;;;;;;13.20;5.30;;;23.10;1.00;;;;;;5028466;28;20185;-88
2022/06/23 05:03:35;;;;;;;11.50;5.00;;;23.30;1.00;;;;;;5041731;28;20189;-84
2022/06/23 05:06:37;;;;;;;11.57;4.63;;;23.10;99.90;;;;;;5044114;28;20269;-83
2022/06/23 05:09:19;;;;;;;9.70;4.17;;;23.20;99.90;;;;;;5060981;28;20156;-83
2022/06/23 05:11:53;;;;;;;9.97;4.83;;;23.40;99.90;;;;;;5035098;28;20316;-85
2022/06/23 05:14:52;;;;;;;8.97;4.80;;;23.60;1.00;;;;;;5030952;28;20486;-86
2022/06/23 05:17:23;;;;;;;9.73;5.00;;;23.90;1.00;;;;;;5026883;28;20177;-88
2022/06/23 05:20:24;;;;;;;11.53;5.33;;;24.00;1.00;;;;;;5021410;28;20170;-86
2022/06/23 05:22:56;;;;;;;9.17;5.10;;;24.20;1.00;;;;;;5020420;28;20227;-85
2022/06/23 05:25:36;;;;;;;11.60;5.80;;;24.40;1.00;;;;;;5019732;28;20157;-86
2022/06/23 05:28:06;;;;;;;12.80;6.27;;;24.50;1.00;;;;;;5037468;28;20158;-86
2022/06/23 05:30:40;;;;;;;9.87;5.50;;;24.60;1.00;;;;;;5020779;28;20637;-86
2022/06/23 05:33:27;;;;;;;9.97;5.77;;;24.60;1.00;;;;;;5021902;28;20597;-83
2022/06/23 05:36:06;;;;;;;9.83;5.83;;;24.70;1.00;;;;;;5022017;28;20172;-84
2022/06/23 05:38:40;;;;;;;10.53;6.20;;;24.80;1.00;;;;;;5037726;28;20213;-83
2022/06/23 05:41:31;;;;;;;14.93;6.27;;;24.70;1.00;;;;;;5021927;28;20202;-88
2022/06/23 05:43:57;;;;;;;9.40;5.70;;;24.70;1.00;;;;;;5020584;28;20170;-89
2022/06/23 05:46:27;;;;;;;11.93;6.30;;;24.80;1.00;;;;;;5038194;28;20185;-88
2022/06/23 05:49:01;;;;;;;10.17;5.47;;;25.00;1.00;;;;;;5037993;28;20170;-87
2022/06/23 05:51:40;;;;;;;11.47;5.93;;;25.10;1.00;;;;;;5018345;28;20268;-84
2022/06/23 05:54:13;;;;;;;7.87;5.73;;;25.20;1.00;;;;;;5019054;28;20196;-87
2022/06/23 05:56:49;;;;;;;11.43;5.77;;;25.30;1.00;;;;;;5020846;28;20190;-85
2022/06/23 05:59:30;;;;;;;11.30;6.30;;;25.50;1.00;;;;;;5022982;28;20181;-84
2022/06/23 06:02:04;;;;;;;11.90;6.00;;;25.60;1.00;;;;;;5019283;28;20208;-83
2022/06/23 06:04:37;;;;;;;13.70;6.20;;;25.60;1.00;;;;;;5019224;28;20273;-83
2022/06/23 06:07:04;;;;;;;12.80;6.23;;;25.70;1.00;;;;;;5018845;28;20218;-83
2022/06/23 06:09:36;;;;;;;9.43;5.23;;;25.90;1.00;;;;;;5036593;28;20174;-81
2022/06/23 06:12:14;;;;;;;13.40;6.33;;;25.80;1.00;;;;;;5034909;28;20180;-84
2022/06/23 06:14:47;;;;;;;10.63;6.30;;;25.80;1.00;;;;;;5036363;28;20665;-83
2022/06/23 06:17:21;;;;;;;13.90;6.80;;;25.60;1.00;;;;;;5016829;28;20190;-79
2022/06/23 06:19:48;;;;;;;12.40;6.83;;;25.50;1.00;;;;;;5016661;28;20509;-79
2022/06/23 06:22:48;;;;;;;11.77;6.80;;;25.60;1.00;;;;;;5034407;28;20267;-80
2022/06/23 06:25:24;;;;;;;11.40;6.87;;;25.40;1.00;;;;;;5033474;28;20169;-80
2022/06/23 06:27:50;;;;;;;11.10;6.67;;;25.40;1.00;;;;;;5035185;28;20212;-78
2022/06/23 06:30:26;;;;;;;11.70;6.80;;;25.40;1.00;;;;;;5037455;28;20174;-78
2022/06/23 06:32:53;;;;;;;9.37;6.33;;;25.40;1.00;;;;;;5039554;28;20196;-80
2022/06/23 06:35:29;;;;;;;12.97;6.57;;;25.40;1.00;;;;;;5035214;28;20200;-81
2022/06/23 06:38:14;;;;;;;12.40;7.37;;;25.40;1.00;;;;;;5035274;28;20174;-87
2022/06/23 06:40:43;;;;;;;11.00;7.20;;;25.20;1.00;;;;;;5006099;28;20260;-85
2022/06/23 06:43:23;;;;;;;11.37;6.97;;;24.80;1.00;;;;;;5024333;28;20586;-88
2022/06/23 06:45:49;;;;;;;9.67;6.83;;;24.70;1.00;;;;;;5024489;28;20184;-87
2022/06/23 06:48:30;;;;;;;10.43;7.03;;;24.70;1.00;;;;;;5041729;28;20177;-87
2022/06/23 06:51:10;;;;;;;15.10;7.30;;;24.80;1.00;;;;;;5039976;28;20193;-84
2022/06/23 06:53:47;;;;;;;13.37;7.30;;;24.80;1.00;;;;;;5021230;28;20197;-86
2022/06/23 06:56:18;;;;;;;13.37;7.80;;;24.70;1.00;;;;;;5040593;28;20192;-87
2022/06/23 06:58:51;;;;;;;11.33;7.57;;;24.90;1.00;;;;;;5022445;28;20239;-85
2022/06/23 07:01:22;;;;;;;12.23;7.47;;;24.80;1.00;;;;;;5023011;28;20201;-87
2022/06/23 07:03:51;;;;;;;14.93;8.37;;;24.70;1.00;;;;;;5040028;28;20181;-84
2022/06/23 07:06:43;;;;;;;14.27;7.90;;;24.60;1.00;;;;;;5025161;28;20336;-84
2022/06/23 07:09:26;;;;;;;12.90;7.47;;;24.60;1.40;;;;;;5038892;28;20173;-89
2022/06/23 07:12:23;;;;;;;12.37;7.83;;;24.70;1.00;;;;;;5020497;28;20248;-84
2022/06/23 07:15:20;;;;;;;13.43;7.97;;;24.70;1.00;;;;;;5021053;28;20216;-86
2022/06/23 07:18:16;;;;;;;10.77;7.73;;;24.70;3.40;;;;;;5034015;28;20185;-87
2022/06/23 07:21:00;;;;;;;14.10;8.07;;;24.80;1.70;;;;;;5020022;28;20189;-86
2022/06/23 07:24:01;;;;;;;14.43;8.23;;;24.90;1.30;;;;;;5027684;28;20181;-85
2022/06/23 07:26:27;;;;;;;12.37;8.17;;;24.80;2.10;;;;;;4985616;28;20180;-86
2022/06/23 07:29:00;;;;;;;12.63;7.57;;;24.70;10.00;;;;;;5027486;28;20185;-85
2022/06/23 07:31:45;;;;;;;11.77;8.70;;;24.60;13.10;;;;;;5025888;28;20209;-87
2022/06/23 07:34:14;;;;;;;13.03;8.43;;;24.50;19.90;;;;;;5029042;28;20176;-84
2022/06/23 07:37:13;;;;;;;12.40;8.33;;;24.50;23.20;;;;;;5024711;28;20533;-85
2022/06/23 07:39:41;;;;;;;12.23;8.80;;;24.50;24.80;;;;;;5020175;28;20201;-86
2022/06/23 07:42:22;;;;;;;11.20;8.47;;;24.60;22.50;;;;;;5017920;28;20561;-87
2022/06/23 07:44:53;;;;;;;16.00;9.00;;;24.80;19.60;;;;;;5019475;28;20586;-87
2022/06/23 07:47:22;;;;;;;11.23;8.13;;;25.00;10.50;;;;;;5018615;28;20174;-89
2022/06/23 07:49:48;;;;;;;9.87;8.27;;;25.00;9.40;;;;;;5002214;28;20201;-83
2022/06/23 07:52:15;;;;;;;12.77;7.93;;;25.20;7.20;;;;;;5019131;28;20524;-88
2022/06/23 07:54:42;;;;;;;10.17;8.27;;;25.20;2.70;;;;;;5020717;28;20173;-84
2022/06/23 07:57:10;;;;;;;11.90;8.13;;;25.10;1.50;;;;;;5037349;28;20272;-85
2022/06/23 08:00:01;;;;;;;10.50;8.00;;;24.90;8.30;;;;;;5017341;28;20248;-87
2022/06/23 08:02:35;;;;;;;9.97;8.00;;;24.80;14.80;;;;;;5015020;28;20307;-87
2022/06/23 08:05:34;;;;;;;13.30;8.70;;;24.80;12.90;;;;;;5002378;28;20184;-86
2022/06/23 08:08:02;;;;;;;14.17;8.30;;;24.80;11.30;;;;;;5037310;28;20177;-85
2022/06/23 08:10:31;;;;;;;13.13;8.70;;;24.90;12.40;;;;;;5018562;28;20169;-85
2022/06/23 08:13:02;;;;;;;11.67;8.17;;;25.00;11.40;;;;;;5036941;28;20174;-86
2022/06/23 08:18:28;;;;;;;12.53;8.53;;;25.20;6.50;;;;;;5036950;28;20172;-84
2022/06/23 08:21:20;;;;;;;9.03;8.10;;;25.20;5.10;;;;;;5018866;28;20176;-87
2022/06/23 08:23:55;;;;;;;13.07;8.40;;;25.10;6.30;;;;;;5020053;28;20181;-85
2022/06/23 08:26:23;;;;;;;9.50;8.00;;;25.10;8.30;;;;;;5027702;28;20177;-84
2022/06/23 08:28:53;;;;;;;13.73;7.93;;;25.20;6.80;;;;;;5026808;28;20588;-88
2022/06/23 08:31:19;;;;;;;11.13;7.17;;;25.30;5.10;;;;;;5027037;28;20177;-85
2022/06/23 08:33:45;;;;;;;13.50;7.97;;;25.40;1.00;;;;;;5027342;28;20178;-85
2022/06/23 08:36:16;;;;;;;12.37;7.80;;;25.50;1.00;;;;;;5022264;28;20211;-85
2022/06/23 08:38:55;;;;;;;9.77;7.60;;;25.80;1.00;;;;;;5021514;28;20181;-86
2022/06/23 08:41:45;;;;;;;29.60;9.00;;;25.80;1.00;;;;;;5020706;28;20209;-86
2022/06/23 08:44:34;;;;;;;10.77;7.13;;;26.00;1.00;;;;;;5020260;28;20194;-86
2022/06/23 08:47:20;;;;;;;10.07;7.60;;;26.20;1.00;;;;;;5020703;28;20187;-86
2022/06/23 08:49:59;;;;;;;10.20;7.20;;;26.40;1.00;;;;;;5037016;28;20603;-84
2022/06/23 08:53:10;;;;;;;9.37;7.07;;;26.60;1.00;;;;;;5038774;28;20185;-86
2022/06/23 08:56:11;;;;;;;10.40;6.57;;;26.50;1.00;;;;;;5025550;28;20252;-86
2022/06/23 08:58:54;;;;;;;11.47;7.07;;;26.30;1.00;;;;;;5019280;28;20213;-88
2022/06/23 09:01:55;;;;;;;14.50;6.73;;;26.40;1.00;;;;;;5037305;28;20199;-87
2022/06/23 09:04:35;;;;;;;10.27;7.40;;;26.60;1.00;;;;;;4994989;28;20174;-88
2022/06/23 09:07:32;;;;;;;9.07;6.13;;;26.90;1.00;;;;;;5026821;28;20196;-84
2022/06/23 09:10:12;;;;;;;11.00;6.33;;;26.90;1.00;;;;;;5040182;28;20162;-85
2022/06/23 09:13:06;;;;;;;8.87;5.97;;;26.80;1.00;;;;;;5053113;28;20171;-84
2022/06/23 09:15:38;;;;;;;9.83;6.07;;;26.70;1.00;;;;;;5018768;28;20181;-86
2022/06/23 09:18:15;;;;;;;12.33;6.03;;;26.90;1.00;;;;;;5050711;28;20191;-88
2022/06/23 09:21:20;;;;;;;6.87;5.83;;;27.10;1.00;;;;;;5024405;28;20634;-85
2022/06/23 09:24:09;;;;;;;8.37;5.83;;;27.10;1.00;;;;;;5024131;28;20185;-88
2022/06/23 09:26:58;;;;;;;12.00;5.67;;;27.40;1.00;;;;;;5039818;28;20188;-88
2022/06/23 09:29:45;;;;;;;8.23;5.73;;;27.40;1.00;;;;;;5021851;28;20169;-88
2022/06/23 09:32:27;;;;;;;8.60;5.03;;;27.50;1.00;;;;;;5022889;28;20603;-85
2022/06/23 09:35:14;;;;;;;10.43;5.33;;;27.40;1.00;;;;;;5022562;28;20175;-89
2022/06/23 09:37:56;;;;;;;9.70;5.77;;;27.50;1.00;;;;;;5028815;28;20169;-87
2022/06/23 09:40:46;;;;;;;8.97;5.50;;;27.50;1.00;;;;;;5043084;28;20257;-84
2022/06/23 09:43:40;;;;;;;8.03;5.43;;;27.30;1.00;;;;;;5042277;28;20204;-89
2022/06/23 09:46:18;;;;;;;12.83;5.70;;;27.10;1.00;;;;;;5039845;28;20187;-84
2022/06/23 09:49:10;;;;;;;9.80;5.90;;;27.00;1.00;;;;;;5022545;28;20233;-85
2022/06/23 09:51:57;;;;;;;8.40;5.50;;;27.00;1.00;;;;;;5022661;28;20171;-86
2022/06/23 09:54:53;;;;;;;8.80;5.68;;;27.00;1.00;;;;;;5022336;28;20183;-86
2022/06/23 09:57:39;;;;;;;9.33;4.70;;;27.10;1.00;;;;;;5023060;28;20194;-85
2022/06/23 10:00:11;;;;;;;7.20;4.67;;;27.00;1.00;;;;;;5021850;28;20199;-86
2022/06/23 10:03:00;;;;;;;9.70;5.30;;;26.90;1.00;;;;;;5016075;28;20292;-86
2022/06/23 10:06:04;;;;;;;10.20;5.70;;;27.00;1.00;;;;;;5017017;28;20148;-84
2022/06/23 10:09:19;;;;;;;8.97;5.73;;;26.90;1.00;;;;;;5022452;28;20178;-88
2022/06/23 10:12:06;;;;;;;9.60;5.80;;;26.80;1.00;;;;;;5038902;28;20150;-87
2022/06/23 10:15:13;;;;;;;8.93;5.77;;;26.90;1.00;;;;;;5036979;28;20222;-84
2022/06/23 10:18:06;;;;;;;11.33;5.80;;;27.10;1.00;;;;;;5004993;28;20191;-86
2022/06/23 10:20:38;;;;;;;7.50;4.67;;;26.90;1.00;;;;;;5019544;28;20209;-87
2022/06/23 10:23:13;;;;;;;10.20;4.37;;;27.20;1.00;;;;;;5019317;28;20686;-84
2022/06/23 10:26:06;;;;;;;8.87;4.40;;;27.30;1.00;;;;;;5020053;28;20196;-85
2022/06/23 10:28:53;;;;;;;7.20;4.30;;;27.40;1.00;;;;;;5022592;28;20189;-85
2022/06/23 10:31:44;;;;;;;8.10;4.20;;;27.40;1.00;;;;;;4978302;28;20207;-84
2022/06/23 10:34:09;;;;;;;11.48;4.43;;;27.40;1.00;;;;;;5016095;28;20154;-85
2022/06/23 10:37:13;;;;;;;7.68;4.53;;;27.50;1.00;;;;;;5014372;28;20266;-84
2022/06/23 10:40:07;;;;;;;7.07;4.60;;;27.60;1.00;;;;;;5008708;28;20181;-85
2022/06/23 10:46:13;;;;;;;10.63;4.63;;;28.00;1.00;;;;;;5033205;28;20189;-84
2022/06/23 10:52:33;;;;;;;8.82;4.15;;;28.30;1.00;;;;;;5030780;28;20205;-83
2022/06/23 10:55:25;;;;;;;11.55;4.80;;;28.70;99.90;;;;;;5016678;28;20166;-84
2022/06/23 10:58:12;;;;;;;7.25;4.28;;;29.00;99.90;;;;;;5019366;28;20185;-84
2022/06/23 11:00:59;;;;;;;8.43;3.40;;;29.20;99.90;;;;;;5022219;28;20238;-86
2022/06/23 11:04:09;;;;;;;7.97;3.75;;;29.20;99.90;;;;;;5014185;28;20286;-85
2022/06/23 11:07:12;;;;;;;7.47;3.40;;;29.10;99.90;;;;;;5015548;28;20178;-86
2022/06/23 11:10:15;;;;;;;7.80;3.88;;;29.00;99.90;;;;;;5018684;28;20201;-85
2022/06/23 11:13:14;;;;;;;9.07;3.78;;;29.00;99.90;;;;;;5016936;28;20174;-85
2022/06/23 11:15:46;;;;;;;9.18;3.95;;;29.30;22.30;;;;;;5005166;28;20229;-89
2022/06/23 11:19:00;;;;;;;7.43;3.75;;;29.50;1.00;;;;;;5004885;28;20174;-87
2022/06/23 11:21:40;;;;;;;11.43;4.20;;;29.50;1.00;;;;;;5006982;28;20201;-87
2022/06/23 11:24:27;;;;;;;9.15;3.97;;;29.30;1.00;;;;;;5001758;28;20173;-88
2022/06/23 11:27:24;;;;;;;7.65;4.05;;;29.40;1.00;;;;;;4999605;28;20174;-86
2022/06/23 11:30:12;;;;;;;9.63;3.70;;;29.30;1.00;;;;;;5002146;28;20320;-85
2022/06/23 11:33:07;;;;;;;7.38;4.18;;;29.40;1.00;;;;;;4999968;28;20174;-89
2022/06/23 11:35:46;;;;;;;10.40;4.13;;;29.60;1.00;;;;;;5000517;28;20166;-88
2022/06/23 11:38:31;;;;;;;6.75;3.80;;;29.40;99.90;;;;;;5018453;28;20181;-89
2022/06/23 11:41:35;;;;;;;6.25;4.20;;;29.00;1.00;;;;;;5005061;28;20185;-88
2022/06/23 11:44:36;;;;;;;12.07;4.18;;;28.90;99.90;;;;;;5005147;28;20185;-88
2022/06/23 11:47:32;;;;;;;9.70;3.60;;;28.90;1.00;;;;;;5000427;28;20181;-87
2022/06/23 11:50:12;;;;;;;5.80;3.65;;;28.90;99.90;;;;;;5001116;28;20257;-87
2022/06/23 11:52:56;;;;;;;8.02;3.78;;;28.90;26.30;;;;;;5001461;28;20197;-85
2022/06/23 11:55:25;;;;;;;7.85;3.80;;;29.20;99.90;;;;;;5004170;28;20180;-85
2022/06/23 11:57:58;;;;;;;6.43;4.05;;;29.30;1.00;;;;;;5001952;28;20205;-89
2022/06/23 12:00:56;;;;;;;7.40;3.42;;;29.40;1.00;;;;;;5006151;28;20186;-88
2022/06/23 12:03:55;;;;;;;6.00;3.53;;;29.30;1.00;;;;;;4996589;28;20198;-86
2022/06/23 12:06:30;;;;;;;8.55;3.38;;;29.00;1.00;;;;;;4994062;28;20268;-86
2022/06/23 12:09:18;;;;;;;7.50;3.78;;;28.90;1.00;;;;;;5014813;28;20173;-90
2022/06/23 12:11:44;;;;;;;6.97;4.45;;;29.10;99.90;;;;;;5019839;28;20276;-88
2022/06/23 12:14:14;;;;;;;8.45;3.67;;;29.20;99.90;;;;;;5019090;28;20200;-86
2022/06/23 12:16:50;;;;;;;7.38;3.95;;;29.20;1.00;;;;;;5019505;28;20165;-88
2022/06/23 12:19:19;;;;;;;7.18;4.00;;;29.20;1.00;;;;;;5021222;28;20185;-85
2022/06/23 12:22:04;;;;;;;6.93;3.67;;;29.20;99.90;;;;;;5039221;28;20205;-89
2022/06/23 12:25:08;;;;;;;7.30;4.00;;;29.40;99.90;;;;;;5022324;28;20169;-85
2022/06/23 12:27:47;;;;;;;6.15;3.85;;;29.40;1.00;;;;;;4994461;28;20193;-86
2022/06/23 12:30:16;;;;;;;6.47;4.20;;;29.50;1.00;;;;;;5020419;28;20170;-89
2022/06/23 12:32:53;;;;;;;5.95;4.15;;;29.40;1.00;;;;;;5019287;28;20237;-86
2022/06/23 12:35:40;;;;;;;5.35;3.83;;;29.30;1.00;;;;;;5019548;28;20173;-85
2022/06/23 12:38:21;;;;;;;5.28;3.30;;;29.30;45.00;;;;;;5020442;28;20205;-85
2022/06/23 12:40:54;;;;;;;4.07;3.00;;;29.30;99.90;;;;;;5024653;28;20165;-90
2022/06/23 12:43:35;;;;;;;4.60;2.80;;;29.20;99.90;;;;;;5002435;28;20263;-89
2022/06/23 12:46:12;;;;;;;6.68;3.40;;;29.20;1.00;;;;;;5021215;28;20276;-86
2022/06/23 12:48:50;;;;;;;3.25;2.42;;;29.40;99.90;;;;;;5033924;28;20191;-84
2022/06/23 12:51:25;;;;;;;4.85;2.70;;;29.50;99.90;;;;;;5032104;28;20177;-85
2022/06/23 12:54:28;;;;;;;4.80;2.63;;;29.40;99.90;;;;;;5055779;28;20193;-84
2022/06/23 12:57:18;;;;;;;5.05;3.00;;;29.50;1.00;;;;;;5031756;28;20201;-85
2022/06/23 13:00:10;;;;;;;4.03;2.42;;;29.50;99.90;;;;;;5040929;28;20185;-82
2022/06/23 13:02:53;;;;;;;8.18;2.83;;;29.60;1.00;;;;;;5037328;28;20238;-85
2022/06/23 13:05:35;;;;;;;5.28;3.67;;;29.60;1.00;;;;;;5046839;28;20173;-87
2022/06/23 13:08:11;;;;;;;5.57;2.50;;;29.70;77.30;;;;;;5027052;28;20652;-86
2022/06/23 13:10:56;;;;;;;4.45;2.88;;;29.60;99.90;;;;;;5022521;28;20641;-86
2022/06/23 13:14:07;;;;;;;6.85;2.88;;;29.70;99.90;;;;;;5023672;28;20192;-85
2022/06/23 13:16:45;;;;;;;7.22;3.20;;;29.60;1.00;;;;;;5038635;28;20245;-85
2022/06/23 13:19:47;;;;;;;3.30;2.60;;;29.50;99.90;;;;;;5030517;28;20196;-88
2022/06/23 13:22:26;;;;;;;4.88;3.20;;;29.60;1.00;;;;;;5026348;28;20201;-87
2022/06/23 13:25:01;;;;;;;5.47;2.78;;;29.80;9.90;;;;;;5022848;28;20174;-88
2022/06/23 13:27:47;;;;;;;7.57;3.17;;;29.70;99.90;;;;;;5027660;28;20172;-86
2022/06/23 13:30:24;;;;;;;5.93;3.05;;;29.80;99.90;;;;;;5041421;28;20174;-85
2022/06/23 13:33:21;;;;;;;5.65;2.83;;;29.80;99.90;;;;;;5042985;28;20161;-86
2022/06/23 13:36:00;;;;;;;5.03;3.25;;;30.00;96.10;;;;;;5028208;28;20170;-89
2022/06/23 13:38:56;;;;;;;6.05;2.90;;;30.00;1.00;;;;;;5028144;28;20188;-87
2022/06/23 13:41:44;;;;;;;6.18;3.28;;;29.90;99.90;;;;;;5042993;28;20193;-85
2022/06/23 13:44:47;;;;;;;4.18;3.17;;;29.80;99.90;;;;;;5034626;28;20179;-86
2022/06/23 13:47:29;;;;;;;4.00;3.10;;;29.70;99.90;;;;;;5015697;28;20213;-87
2022/06/23 13:50:33;;;;;;;4.50;3.30;;;29.70;99.90;;;;;;5026044;28;20172;-90
2022/06/23 13:53:13;;;;;;;5.03;2.97;;;29.70;99.90;;;;;;5021618;28;20193;-87
2022/06/23 13:55:53;;;;;;;4.82;3.60;;;29.80;99.90;;;;;;5020867;28;20169;-88
2022/06/23 13:58:19;;;;;;;4.45;3.10;;;30.00;1.00;;;;;;5019962;28;20178;-89
2022/06/23 14:00:57;;;;;;;4.82;3.80;;;30.20;1.00;;;;;;5020990;28;20314;-90
2022/06/23 14:03:45;;;;;;;8.65;4.50;;;30.40;99.90;;;;;;5020989;28;20189;-87
2022/06/23 14:06:26;;;;;;;7.00;5.32;;;30.30;99.90;;;;;;5021470;28;20274;-87
2022/06/23 14:08:57;;;;;;;8.18;4.90;;;30.10;1.00;;;;;;5021462;28;20177;-86
2022/06/23 14:11:56;;;;;;;6.70;3.60;;;30.10;1.00;;;;;;5054121;28;20293;-88
2022/06/23 14:14:30;;;;;;;5.97;3.67;;;30.30;1.00;;;;;;5059584;28;20166;-85
2022/06/23 14:17:09;;;;;;;5.85;4.35;;;30.60;1.00;;;;;;5038103;28;20207;-86
2022/06/23 14:19:48;;;;;;;8.63;5.55;;;30.60;99.90;;;;;;5026294;28;20185;-86
2022/06/23 14:22:13;;;;;;;9.27;6.78;;;30.40;99.90;;;;;;5046400;28;20274;-89
2022/06/23 14:24:48;;;;;;;7.20;5.05;;;30.30;1.00;;;;;;5020967;28;20162;-85
2022/06/23 14:30:47;;;;;;;6.43;3.08;;;30.30;1.00;;;;;;5039403;28;20172;-90
2022/06/23 14:33:45;;;;;;;8.02;3.60;;;30.20;85.90;;;;;;5020908;28;20177;-87
2022/06/23 14:36:18;;;;;;;3.97;3.22;;;30.00;99.90;;;;;;4974368;28;20190;-87
2022/06/23 14:39:20;;;;;;;6.70;2.83;;;30.20;1.00;;;;;;5022024;28;20181;-87
2022/06/23 14:41:54;;;;;;;5.03;2.70;;;30.40;1.00;;;;;;5021354;28;20208;-89